sensor_id;sensor_type;location;lat;lon;timestamp;P1;durP1;ratioP1;P2;durP2;ratioP2
51594;SDS011;37677;53.254;6.594;2024-01-11T06:07:47;89.50;;;57.05;;
51594;SDS011;37677;53.254;6.594;2024-01-11T06:10:14;92.55;;;58.30;;
51594;SDS011;37677;53.254;6.594;2024-01-11T06:12:40;91.38;;;59.80;;
51594;SDS011;37677;53.254;6.594;2024-01-11T06:15:06;86.32;;;55.85;;
51594;SDS011;37677;53.254;6.594;2024-01-11T06:17:32;79.53;;;53.60;;
51594;SDS011;37677;53.254;6.594;2024-01-11T06:19:59;77.10;;;52.67;;
51594;SDS011;37677;53.254;6.594;2024-01-11T06:22:25;77.10;;;52.17;;
51594;SDS011;37677;53.254;6.594;2024-01-11T06:24:51;73.82;;;50.58;;
51594;SDS011;37677;53.254;6.594;2024-01-11T06:27:17;71.10;;;50.15;;
51594;SDS011;37677;53.254;6.594;2024-01-11T06:29:43;71.88;;;48.25;;
51594;SDS011;37677;53.254;6.594;2024-01-11T06:32:09;63.65;;;46.15;;
51594;SDS011;37677;53.254;6.594;2024-01-11T06:34:36;65.28;;;46.35;;
51594;SDS011;37677;53.254;6.594;2024-01-11T06:37:02;59.05;;;42.97;;
51594;SDS011;37677;53.254;6.594;2024-01-11T06:39:29;57.72;;;41.83;;
51594;SDS011;37677;53.254;6.594;2024-01-11T06:41:55;57.20;;;42.88;;
51594;SDS011;37677;53.254;6.594;2024-01-11T06:44:21;55.95;;;41.45;;
51594;SDS011;37677;53.254;6.594;2024-01-11T06:46:47;58.35;;;40.40;;
51594;SDS011;37677;53.254;6.594;2024-01-11T06:49:13;57.33;;;41.72;;
51594;SDS011;37677;53.254;6.594;2024-01-11T06:51:39;55.80;;;40.17;;
51594;SDS011;37677;53.254;6.594;2024-01-11T06:54:06;52.50;;;40.58;;
51594;SDS011;37677;53.254;6.594;2024-01-11T06:56:32;50.80;;;39.17;;
51594;SDS011;37677;53.254;6.594;2024-01-11T06:58:58;49.55;;;38.20;;
51594;SDS011;37677;53.254;6.594;2024-01-11T07:01:24;54.53;;;38.53;;
51594;SDS011;37677;53.254;6.594;2024-01-11T07:03:50;52.00;;;39.60;;
51594;SDS011;37677;53.254;6.594;2024-01-11T07:06:17;51.45;;;36.80;;
51594;SDS011;37677;53.254;6.594;2024-01-11T07:08:43;51.10;;;37.05;;
51594;SDS011;37677;53.254;6.594;2024-01-11T07:11:10;48.97;;;36.40;;
51594;SDS011;37677;53.254;6.594;2024-01-11T07:13:36;46.75;;;35.38;;
51594;SDS011;37677;53.254;6.594;2024-01-11T07:16:02;46.70;;;34.88;;
51594;SDS011;37677;53.254;6.594;2024-01-11T07:18:28;43.50;;;32.50;;
51594;SDS011;37677;53.254;6.594;2024-01-11T07:20:59;48.40;;;33.80;;
51594;SDS011;37677;53.254;6.594;2024-01-11T07:23:26;46.70;;;32.92;;
51594;SDS011;37677;53.254;6.594;2024-01-11T07:25:52;44.28;;;32.00;;
51594;SDS011;37677;53.254;6.594;2024-01-11T07:28:21;42.95;;;32.08;;
51594;SDS011;37677;53.254;6.594;2024-01-11T07:30:53;41.65;;;32.25;;
51594;SDS011;37677;53.254;6.594;2024-01-11T07:33:20;45.75;;;32.67;;
51594;SDS011;37677;53.254;6.594;2024-01-11T07:35:47;43.10;;;32.25;;
51594;SDS011;37677;53.254;6.594;2024-01-11T07:38:13;40.60;;;31.13;;
51594;SDS011;37677;53.254;6.594;2024-01-11T07:40:39;40.40;;;31.25;;
51594;SDS011;37677;53.254;6.594;2024-01-11T07:43:05;41.78;;;31.25;;
51594;SDS011;37677;53.254;6.594;2024-01-11T15:37:29;53.67;;;30.90;;
51594;SDS011;37677;53.254;6.594;2024-01-11T15:40:22;44.15;;;29.08;;
51594;SDS011;37677;53.254;6.594;2024-01-11T15:42:51;48.78;;;28.90;;
51594;SDS011;37677;53.254;6.594;2024-01-11T15:45:18;40.28;;;28.75;;
51594;SDS011;37677;53.254;6.594;2024-01-11T15:47:45;52.35;;;29.17;;
51594;SDS011;37677;53.254;6.594;2024-01-11T15:50:11;45.78;;;27.23;;
51594;SDS011;37677;53.254;6.594;2024-01-11T15:52:38;39.78;;;25.30;;
51594;SDS011;37677;53.254;6.594;2024-01-11T15:55:04;41.08;;;24.52;;
51594;SDS011;37677;53.254;6.594;2024-01-11T15:57:35;36.58;;;22.60;;
51594;SDS011;37677;53.254;6.594;2024-01-11T16:00:03;33.95;;;22.27;;
51594;SDS011;37677;53.254;6.594;2024-01-11T16:02:30;40.58;;;22.42;;
51594;SDS011;37677;53.254;6.594;2024-01-11T16:04:56;37.67;;;22.10;;
51594;SDS011;37677;53.254;6.594;2024-01-11T16:10:22;35.58;;;21.35;;
51594;SDS011;37677;53.254;6.594;2024-01-11T16:12:49;36.20;;;20.92;;
51594;SDS011;37677;53.254;6.594;2024-01-11T16:15:15;34.33;;;22.42;;
51594;SDS011;37677;53.254;6.594;2024-01-11T16:17:41;38.05;;;21.27;;
51594;SDS011;37677;53.254;6.594;2024-01-11T16:20:08;38.53;;;23.63;;
51594;SDS011;37677;53.254;6.594;2024-01-11T16:22:35;38.28;;;23.63;;
51594;SDS011;37677;53.254;6.594;2024-01-11T16:25:01;42.50;;;23.45;;
51594;SDS011;37677;53.254;6.594;2024-01-11T16:27:28;39.67;;;24.38;;
51594;SDS011;37677;53.254;6.594;2024-01-11T16:29:55;40.22;;;24.23;;
51594;SDS011;37677;53.254;6.594;2024-01-11T16:32:21;30.60;;;21.35;;
51594;SDS011;37677;53.254;6.594;2024-01-11T16:34:47;35.63;;;20.80;;
51594;SDS011;37677;53.254;6.594;2024-01-11T16:37:15;34.92;;;19.45;;
51594;SDS011;37677;53.254;6.594;2024-01-11T16:39:41;32.78;;;19.55;;
51594;SDS011;37677;53.254;6.594;2024-01-11T16:42:08;38.78;;;20.48;;
51594;SDS011;37677;53.254;6.594;2024-01-11T16:44:35;35.47;;;20.48;;
51594;SDS011;37677;53.254;6.594;2024-01-11T16:47:01;36.15;;;19.90;;
51594;SDS011;37677;53.254;6.594;2024-01-11T16:49:27;31.13;;;19.15;;
51594;SDS011;37677;53.254;6.594;2024-01-11T16:51:53;32.10;;;18.58;;
51594;SDS011;37677;53.254;6.594;2024-01-11T16:54:20;32.70;;;19.33;;
51594;SDS011;37677;53.254;6.594;2024-01-11T16:56:46;32.42;;;18.05;;
51594;SDS011;37677;53.254;6.594;2024-01-11T16:59:13;32.88;;;19.27;;
51594;SDS011;37677;53.254;6.594;2024-01-11T17:01:41;33.13;;;19.95;;
51594;SDS011;37677;53.254;6.594;2024-01-11T17:04:07;30.75;;;18.58;;
51594;SDS011;37677;53.254;6.594;2024-01-11T17:06:33;34.92;;;22.85;;
51594;SDS011;37677;53.254;6.594;2024-01-11T17:09:00;35.85;;;22.85;;
51594;SDS011;37677;53.254;6.594;2024-01-11T17:11:26;35.85;;;21.80;;
51594;SDS011;37677;53.254;6.594;2024-01-11T17:13:52;31.63;;;21.70;;
51594;SDS011;37677;53.254;6.594;2024-01-11T17:16:20;34.83;;;22.38;;
51594;SDS011;37677;53.254;6.594;2024-01-11T17:18:46;29.75;;;20.92;;
51594;SDS011;37677;53.254;6.594;2024-01-11T17:21:12;34.38;;;21.45;;
51594;SDS011;37677;53.254;6.594;2024-01-11T17:23:38;32.67;;;20.23;;
51594;SDS011;37677;53.254;6.594;2024-01-11T17:26:05;34.83;;;20.45;;
51594;SDS011;37677;53.254;6.594;2024-01-11T17:28:31;35.00;;;19.70;;
51594;SDS011;37677;53.254;6.594;2024-01-11T17:30:57;31.92;;;18.60;;
51594;SDS011;37677;53.254;6.594;2024-01-11T17:33:24;33.47;;;18.60;;
51594;SDS011;37677;53.254;6.594;2024-01-11T17:35:50;34.67;;;18.48;;
51594;SDS011;37677;53.254;6.594;2024-01-11T17:38:17;40.72;;;20.52;;
51594;SDS011;37677;53.254;6.594;2024-01-11T17:40:43;34.38;;;20.60;;
51594;SDS011;37677;53.254;6.594;2024-01-11T17:43:09;33.47;;;19.48;;
51594;SDS011;37677;53.254;6.594;2024-01-11T17:45:35;41.80;;;20.13;;
51594;SDS011;37677;53.254;6.594;2024-01-11T17:48:04;36.85;;;18.75;;
51594;SDS011;37677;53.254;6.594;2024-01-11T17:50:31;32.97;;;16.77;;
51594;SDS011;37677;53.254;6.594;2024-01-11T17:52:59;33.47;;;17.67;;
51594;SDS011;37677;53.254;6.594;2024-01-11T17:55:25;33.00;;;17.23;;
51594;SDS011;37677;53.254;6.594;2024-01-11T17:57:53;30.20;;;17.48;;
51594;SDS011;37677;53.254;6.594;2024-01-11T18:00:19;29.65;;;16.23;;
51594;SDS011;37677;53.254;6.594;2024-01-11T18:02:45;29.20;;;17.17;;
51594;SDS011;37677;53.254;6.594;2024-01-11T18:05:11;28.65;;;15.98;;
51594;SDS011;37677;53.254;6.594;2024-01-11T18:07:38;31.35;;;17.67;;
51594;SDS011;37677;53.254;6.594;2024-01-11T18:12:53;28.20;;;16.00;;
51594;SDS011;37677;53.254;6.594;2024-01-11T18:15:19;28.15;;;15.30;;
51594;SDS011;37677;53.254;6.594;2024-01-11T18:17:46;30.02;;;16.00;;
51594;SDS011;37677;53.254;6.594;2024-01-11T18:20:12;31.08;;;16.58;;
51594;SDS011;37677;53.254;6.594;2024-01-11T18:22:38;32.80;;;15.25;;
51594;SDS011;37677;53.254;6.594;2024-01-11T18:25:05;27.15;;;15.27;;
51594;SDS011;37677;53.254;6.594;2024-01-11T18:27:32;28.23;;;14.27;;
51594;SDS011;37677;53.254;6.594;2024-01-11T18:29:59;29.02;;;14.73;;
51594;SDS011;37677;53.254;6.594;2024-01-11T18:32:25;35.35;;;18.20;;
51594;SDS011;37677;53.254;6.594;2024-01-11T18:34:51;27.25;;;13.98;;
51594;SDS011;37677;53.254;6.594;2024-01-11T18:37:17;31.83;;;16.20;;
51594;SDS011;37677;53.254;6.594;2024-01-11T18:39:45;28.55;;;13.18;;
51594;SDS011;37677;53.254;6.594;2024-01-11T18:42:11;23.58;;;9.15;;
51594;SDS011;37677;53.254;6.594;2024-01-11T18:44:38;24.73;;;8.45;;
51594;SDS011;37677;53.254;6.594;2024-01-11T18:47:05;26.52;;;7.47;;
51594;SDS011;37677;53.254;6.594;2024-01-11T18:49:31;19.15;;;6.97;;
51594;SDS011;37677;53.254;6.594;2024-01-11T18:51:58;22.95;;;6.93;;
51594;SDS011;37677;53.254;6.594;2024-01-11T18:54:24;20.23;;;6.78;;
51594;SDS011;37677;53.254;6.594;2024-01-11T18:56:51;18.00;;;5.43;;
51594;SDS011;37677;53.254;6.594;2024-01-11T18:59:17;21.42;;;6.10;;
51594;SDS011;37677;53.254;6.594;2024-01-11T19:01:45;22.10;;;5.82;;
51594;SDS011;37677;53.254;6.594;2024-01-11T19:04:14;17.00;;;5.40;;
51594;SDS011;37677;53.254;6.594;2024-01-11T19:06:40;23.98;;;5.25;;
51594;SDS011;37677;53.254;6.594;2024-01-11T19:09:10;21.90;;;5.47;;
51594;SDS011;37677;53.254;6.594;2024-01-11T19:11:40;18.63;;;5.10;;
51594;SDS011;37677;53.254;6.594;2024-01-11T19:14:06;20.73;;;4.80;;
51594;SDS011;37677;53.254;6.594;2024-01-11T19:16:38;18.23;;;4.68;;
51594;SDS011;37677;53.254;6.594;2024-01-11T19:19:07;19.67;;;4.25;;
51594;SDS011;37677;53.254;6.594;2024-01-11T19:21:33;19.17;;;4.93;;
51594;SDS011;37677;53.254;6.594;2024-01-11T19:23:59;16.88;;;4.88;;
51594;SDS011;37677;53.254;6.594;2024-01-11T19:26:26;21.67;;;4.97;;
51594;SDS011;37677;53.254;6.594;2024-01-11T19:28:52;17.50;;;4.75;;
51594;SDS011;37677;53.254;6.594;2024-01-11T19:31:26;19.45;;;4.10;;
51594;SDS011;37677;53.254;6.594;2024-01-11T19:33:53;22.35;;;5.00;;
51594;SDS011;37677;53.254;6.594;2024-01-11T19:36:20;16.98;;;5.05;;
51594;SDS011;37677;53.254;6.594;2024-01-11T19:38:47;28.20;;;5.18;;
51594;SDS011;37677;53.254;6.594;2024-01-11T19:41:19;18.70;;;4.97;;
51594;SDS011;37677;53.254;6.594;2024-01-11T19:43:45;29.17;;;5.43;;
51594;SDS011;37677;53.254;6.594;2024-01-11T19:46:18;16.85;;;4.15;;
51594;SDS011;37677;53.254;6.594;2024-01-11T19:48:44;21.90;;;5.55;;
51594;SDS011;37677;53.254;6.594;2024-01-11T19:51:11;17.33;;;4.25;;
51594;SDS011;37677;53.254;6.594;2024-01-11T19:53:38;17.55;;;3.58;;
51594;SDS011;37677;53.254;6.594;2024-01-11T19:56:16;18.48;;;4.38;;
51594;SDS011;37677;53.254;6.594;2024-01-11T19:58:44;21.58;;;3.95;;
51594;SDS011;37677;53.254;6.594;2024-01-11T20:01:12;15.75;;;4.35;;
51594;SDS011;37677;53.254;6.594;2024-01-11T20:03:39;14.63;;;3.75;;
51594;SDS011;37677;53.254;6.594;2024-01-11T20:06:07;20.40;;;3.63;;
51594;SDS011;37677;53.254;6.594;2024-01-11T20:08:39;18.38;;;4.80;;
51594;SDS011;37677;53.254;6.594;2024-01-11T20:11:06;27.83;;;4.95;;
51594;SDS011;37677;53.254;6.594;2024-01-11T20:16:03;19.35;;;5.10;;
51594;SDS011;37677;53.254;6.594;2024-01-11T20:18:30;16.60;;;4.53;;
51594;SDS011;37677;53.254;6.594;2024-01-11T20:20:57;16.58;;;5.03;;
51594;SDS011;37677;53.254;6.594;2024-01-11T20:23:23;21.95;;;5.13;;
51594;SDS011;37677;53.254;6.594;2024-01-11T20:25:49;20.92;;;5.30;;
51594;SDS011;37677;53.254;6.594;2024-01-11T20:28:16;26.92;;;6.85;;
51594;SDS011;37677;53.254;6.594;2024-01-11T20:30:43;24.98;;;5.70;;
51594;SDS011;37677;53.254;6.594;2024-01-11T20:33:09;16.40;;;5.20;;
51594;SDS011;37677;53.254;6.594;2024-01-11T20:35:36;18.98;;;4.85;;
51594;SDS011;37677;53.254;6.594;2024-01-11T20:38:02;17.25;;;4.75;;
51594;SDS011;37677;53.254;6.594;2024-01-11T20:40:29;15.55;;;5.03;;
51594;SDS011;37677;53.254;6.594;2024-01-11T20:42:55;17.13;;;5.47;;
51594;SDS011;37677;53.254;6.594;2024-01-11T20:45:21;23.52;;;5.10;;
51594;SDS011;37677;53.254;6.594;2024-01-11T20:47:47;13.32;;;5.05;;
51594;SDS011;37677;53.254;6.594;2024-01-11T20:50:13;17.17;;;5.35;;
51594;SDS011;37677;53.254;6.594;2024-01-11T20:52:39;19.90;;;5.43;;
51594;SDS011;37677;53.254;6.594;2024-01-11T20:55:05;15.27;;;4.55;;
51594;SDS011;37677;53.254;6.594;2024-01-11T20:57:32;16.25;;;4.97;;
51594;SDS011;37677;53.254;6.594;2024-01-11T20:59:59;16.35;;;4.65;;
51594;SDS011;37677;53.254;6.594;2024-01-11T21:02:25;18.67;;;5.07;;
51594;SDS011;37677;53.254;6.594;2024-01-11T21:04:51;18.40;;;4.25;;
51594;SDS011;37677;53.254;6.594;2024-01-11T21:07:17;13.00;;;3.92;;
51594;SDS011;37677;53.254;6.594;2024-01-11T21:09:43;16.23;;;4.95;;
51594;SDS011;37677;53.254;6.594;2024-01-11T21:12:09;13.40;;;4.18;;
51594;SDS011;37677;53.254;6.594;2024-01-11T21:14:36;13.93;;;3.90;;
51594;SDS011;37677;53.254;6.594;2024-01-11T21:17:02;14.68;;;4.45;;
51594;SDS011;37677;53.254;6.594;2024-01-11T21:19:28;18.02;;;4.25;;
51594;SDS011;37677;53.254;6.594;2024-01-11T21:21:54;16.40;;;4.85;;
51594;SDS011;37677;53.254;6.594;2024-01-11T21:24:20;14.05;;;4.00;;
51594;SDS011;37677;53.254;6.594;2024-01-11T21:26:46;14.68;;;4.95;;
51594;SDS011;37677;53.254;6.594;2024-01-11T21:29:12;21.60;;;6.82;;
51594;SDS011;37677;53.254;6.594;2024-01-11T21:31:39;18.52;;;6.45;;
51594;SDS011;37677;53.254;6.594;2024-01-11T21:34:05;17.20;;;6.53;;
51594;SDS011;37677;53.254;6.594;2024-01-11T21:36:31;22.13;;;6.05;;
51594;SDS011;37677;53.254;6.594;2024-01-11T21:39:01;17.73;;;5.50;;
51594;SDS011;37677;53.254;6.594;2024-01-11T21:41:27;16.77;;;6.22;;
51594;SDS011;37677;53.254;6.594;2024-01-11T21:43:54;17.05;;;5.35;;
51594;SDS011;37677;53.254;6.594;2024-01-11T21:46:23;22.45;;;11.13;;
51594;SDS011;37677;53.254;6.594;2024-01-11T21:51:21;20.83;;;8.68;;
51594;SDS011;37677;53.254;6.594;2024-01-11T21:53:47;19.52;;;8.25;;
51594;SDS011;37677;53.254;6.594;2024-01-11T21:56:21;19.38;;;9.18;;
51594;SDS011;37677;53.254;6.594;2024-01-11T21:58:47;27.92;;;10.20;;
51594;SDS011;37677;53.254;6.594;2024-01-11T22:01:13;26.00;;;9.52;;
51594;SDS011;37677;53.254;6.594;2024-01-11T22:03:39;24.05;;;9.43;;
51594;SDS011;37677;53.254;6.594;2024-01-11T22:06:08;21.63;;;9.52;;
51594;SDS011;37677;53.254;6.594;2024-01-11T22:08:34;22.30;;;9.07;;
51594;SDS011;37677;53.254;6.594;2024-01-11T22:11:01;26.20;;;9.90;;
51594;SDS011;37677;53.254;6.594;2024-01-11T22:13:27;20.42;;;8.85;;
51594;SDS011;37677;53.254;6.594;2024-01-11T22:15:55;32.65;;;9.35;;
